createdAt,value
2019-01-25T00:01:52.615Z,8.3
2019-01-25T00:11:51.824Z,8.3
2019-01-25T00:21:51.034Z,8.1
2019-01-25T00:31:50.244Z,8.1
2019-01-25T00:41:49.445Z,8
2019-01-25T00:51:48.652Z,7.9
2019-01-25T01:01:47.878Z,7.8
2019-01-25T01:11:47.066Z,7.6
2019-01-25T01:21:46.272Z,7.7
2019-01-25T01:31:45.480Z,7.6
2019-01-25T01:41:44.687Z,7.7
2019-01-25T01:51:43.893Z,7.8
2019-01-25T02:01:43.099Z,8
2019-01-25T02:11:42.307Z,8.1
2019-01-25T02:21:41.515Z,7.9
2019-01-25T02:31:40.722Z,7.8
2019-01-25T02:41:39.929Z,7.7
2019-01-25T02:51:39.135Z,7.6
2019-01-25T03:01:38.341Z,7.6
2019-01-25T03:11:37.547Z,7.7
2019-01-25T03:21:36.753Z,7.7
2019-01-25T03:31:37.701Z,7.7
2019-01-25T03:41:35.175Z,7.6
2019-01-25T03:51:34.374Z,7.5
2019-01-25T04:01:33.581Z,7.3
2019-01-25T04:11:32.786Z,7.1
2019-01-25T04:21:31.996Z,7.3
2019-01-25T04:31:31.201Z,7.3
2019-01-25T04:41:30.415Z,7.5
2019-01-25T04:51:29.622Z,7.8
2019-01-25T05:01:28.833Z,7.6
2019-01-25T05:11:28.049Z,7.6
2019-01-25T05:21:27.268Z,7.4
2019-01-25T05:31:26.478Z,5.1
2019-01-25T05:41:28.422Z,4.2
2019-01-25T05:51:24.904Z,3.6
2019-01-25T06:01:24.115Z,3.3
2019-01-25T06:11:23.326Z,3.3
2019-01-25T06:21:22.535Z,3.1
2019-01-25T06:31:21.752Z,3.1
2019-01-25T06:41:20.955Z,3.2
2019-01-25T06:51:20.159Z,3.2
2019-01-25T07:01:19.369Z,3.3
2019-01-25T07:11:18.576Z,3.3
2019-01-25T07:21:17.784Z,3.2
2019-01-25T07:31:17.133Z,3.2
2019-01-25T07:41:16.196Z,3
2019-01-25T07:51:15.428Z,3
2019-01-25T08:01:14.614Z,2.9
2019-01-25T08:11:13.871Z,2.9
2019-01-25T08:21:13.022Z,2.6
2019-01-25T08:31:12.228Z,2.5
2019-01-25T08:41:11.442Z,2.5
2019-01-25T08:51:10.892Z,2.4
2019-01-25T09:01:09.848Z,2.5
2019-01-25T09:11:09.054Z,2.4
2019-01-25T09:21:08.260Z,2.4
2019-01-25T09:31:07.467Z,2.3
2019-01-25T09:41:06.671Z,2.2
2019-01-25T09:51:05.878Z,2.6
2019-01-25T10:01:05.090Z,2.8
2019-01-25T10:11:04.292Z,2.8
2019-01-25T10:21:03.499Z,2.9
2019-01-25T10:31:02.708Z,2.6
2019-01-25T10:41:01.914Z,2.4
2019-01-25T10:51:01.116Z,2.1
2019-01-25T11:01:00.327Z,2.1
2019-01-25T11:10:59.540Z,2.4
2019-01-25T11:20:58.756Z,2.4
2019-01-25T11:30:57.965Z,2.3
2019-01-25T11:40:57.180Z,2.9
2019-01-25T12:00:55.605Z,3.4
2019-01-25T12:10:54.826Z,3.5
2019-01-25T12:20:54.030Z,3.4
2019-01-25T12:30:53.241Z,3.2
2019-01-25T12:40:52.452Z,2.9
2019-01-25T12:50:51.662Z,2.9
2019-01-25T13:00:50.925Z,3
2019-01-25T13:10:50.086Z,3.3
2019-01-25T13:20:49.299Z,3.1
2019-01-25T13:30:48.513Z,3.3
2019-01-25T13:40:47.728Z,3.5
2019-01-25T13:50:46.936Z,3.6
2019-01-25T14:00:46.140Z,3.5
2019-01-25T14:10:45.350Z,2.8
2019-01-25T14:20:44.562Z,2.6
2019-01-25T14:30:43.800Z,2.3
2019-01-25T14:40:42.991Z,2.1
2019-01-25T14:50:42.197Z,2.3
2019-01-25T15:00:41.414Z,2.1
2019-01-25T15:10:40.616Z,2.1
2019-01-25T15:20:39.827Z,2
2019-01-25T15:30:39.040Z,2.1
2019-01-25T15:40:38.253Z,2.1
2019-01-25T15:50:37.464Z,2.1
2019-01-25T16:00:36.679Z,2.3
2019-01-25T16:10:35.890Z,2.6
2019-01-25T16:20:35.123Z,2.6
2019-01-25T16:30:34.318Z,3.6
2019-01-25T16:40:33.525Z,4.6
2019-01-25T16:50:32.734Z,5.3
2019-01-25T17:00:31.983Z,5.9
2019-01-25T17:10:31.214Z,6.3
2019-01-25T17:20:30.373Z,6.6
2019-01-25T17:30:29.617Z,6.7
2019-01-25T17:40:28.826Z,6.7
2019-01-25T17:50:28.019Z,6.6
2019-01-25T18:00:27.234Z,6.8
2019-01-25T18:10:26.447Z,6.8
2019-01-25T18:20:25.659Z,6.9
2019-01-25T18:30:24.870Z,7.1
2019-01-25T18:40:24.082Z,7.2
2019-01-25T18:50:23.295Z,7.3
2019-01-25T19:00:22.708Z,7.2
2019-01-25T19:10:21.726Z,7.3
2019-01-25T19:20:21.527Z,7.3
2019-01-25T19:30:20.525Z,7.2
2019-01-25T19:40:19.356Z,7.2
2019-01-25T19:50:18.573Z,7.2
2019-01-25T20:00:17.788Z,7.2
2019-01-25T20:10:17.004Z,7.3
2019-01-25T20:20:17.651Z,7.3
2019-01-25T20:30:15.435Z,7.3
2019-01-25T20:40:14.676Z,7.3
2019-01-25T20:50:13.894Z,7.4
2019-01-25T21:00:13.080Z,7.4
2019-01-25T21:10:12.302Z,7.4
2019-01-25T21:20:11.512Z,7.3
2019-01-25T21:30:10.724Z,7.1
2019-01-25T21:40:09.940Z,7.1
2019-01-25T21:50:09.162Z,7
2019-01-25T22:00:08.372Z,7.1
2019-01-25T22:10:07.582Z,7.1
2019-01-25T22:20:06.794Z,7.1
2019-01-25T22:30:06.006Z,7
2019-01-25T22:40:05.214Z,7
2019-01-25T22:50:04.426Z,6.8
2019-01-25T23:00:03.639Z,6.6
2019-01-25T23:10:02.843Z,6.6
2019-01-25T23:20:02.054Z,6.4
2019-01-25T23:30:01.260Z,6.2
2019-01-25T23:40:00.525Z,6.1
2019-01-25T23:49:59.678Z,6
2019-01-25T23:59:58.888Z,5.9
